Time;durP1;ratioP1;P1;durP2;ratioP2;P2;SDS_P1;SDS_P2;PMS_P1;PMS_P2;Temp;Humidity;BMP_temperature;BMP_pressure;BME280_temperature;BME280_humidity;BME280_pressure;Samples;Min_cycle;Max_cycle;Signal;HPM_P1;HPM_P2
2022/10/27 08:01:46;;;;;;;3.30;2.72;;;;;;;14.59;95.04;101866.09;5318593;27;20359;-67
2022/10/27 08:04:17;;;;;;;7.15;3.05;;;;;;;14.64;93.74;101874.44;5300914;28;20085;-68
2022/10/27 08:06:49;;;;;;;7.32;2.85;;;;;;;14.67;93.31;101875.78;5300610;28;20024;-69
2022/10/27 08:09:21;;;;;;;4.38;2.70;;;;;;;14.70;92.72;101862.09;5294277;28;20028;-68
2022/10/27 08:11:52;;;;;;;5.10;2.53;;;;;;;14.74;92.63;101867.91;5300269;28;20097;-67
2022/10/27 08:14:23;;;;;;;4.43;3.00;;;;;;;14.76;91.88;101871.25;5301032;28;20025;-67
2022/10/27 08:16:56;;;;;;;3.65;2.15;;;;;;;14.81;91.70;101873.19;5300702;28;20032;-67
2022/10/27 08:19:27;;;;;;;6.97;2.50;;;;;;;14.86;91.27;101861.97;5297164;28;20070;-67
2022/10/27 08:21:58;;;;;;;5.70;2.45;;;;;;;14.94;90.79;101850.97;5295168;28;20063;-67
2022/10/27 08:24:30;;;;;;;6.35;2.53;;;;;;;15.03;89.38;101853.94;5298657;28;20024;-67
2022/10/27 08:27:01;;;;;;;9.18;2.00;;;;;;;15.09;89.28;101852.78;5284791;28;20028;-68
2022/10/27 08:29:32;;;;;;;7.50;2.22;;;;;;;15.17;89.47;101854.91;5279389;28;20488;-68
2022/10/27 08:32:04;;;;;;;6.63;2.55;;;;;;;15.25;88.47;101861.00;5283902;28;20031;-68
2022/10/27 08:34:35;;;;;;;3.65;1.70;;;;;;;15.32;88.44;101862.31;5297717;28;20057;-68
2022/10/27 08:37:06;;;;;;;5.22;2.00;;;;;;;15.39;87.35;101867.50;5300320;28;20111;-68
2022/10/27 08:39:38;;;;;;;4.55;1.70;;;;;;;15.47;86.09;101857.63;5290965;28;20039;-68
2022/10/27 08:42:31;;;;;;;5.22;1.88;;;;;;;15.55;85.60;101854.22;5279655;28;20036;-68
2022/10/27 08:45:14;;;;;;;3.70;1.80;;;;;;;15.64;85.17;101852.41;5279373;28;20036;-67
2022/10/27 08:47:46;;;;;;;2.55;1.55;;;;;;;15.77;86.61;101848.06;5289054;28;20111;-68
2022/10/27 08:50:23;;;;;;;3.45;1.63;;;;;;;15.75;84.67;101851.19;5300105;28;20166;-67
2022/10/27 08:53:08;;;;;;;3.63;1.58;;;;;;;15.82;83.65;101839.59;5292313;28;20028;-68
2022/10/27 08:55:48;;;;;;;5.85;1.70;;;;;;;15.88;83.61;101829.19;5299856;28;20393;-68
2022/10/27 08:58:39;;;;;;;15.93;7.00;;;;;;;15.95;82.89;101826.81;5279411;28;20112;-68
2022/10/27 09:01:16;;;;;;;3.40;2.20;;;;;;;16.06;81.73;101820.78;5294161;28;20052;-68
2022/10/27 09:04:08;;;;;;;3.45;1.77;;;;;;;16.16;80.73;101813.38;5299835;28;20123;-68
2022/10/27 09:07:09;;;;;;;6.75;1.50;;;;;;;16.24;80.42;101796.72;5299884;28;20040;-68
2022/10/27 09:09:50;;;;;;;4.03;1.67;;;;;;;16.27;80.48;101809.28;5319104;28;20433;-68
2022/10/27 09:12:44;;;;;;;4.30;1.88;;;;;;;16.33;80.73;101810.84;5295817;28;20040;-68
2022/10/27 09:15:32;;;;;;;2.72;1.55;;;;;;;16.40;80.85;101811.28;5295681;28;20107;-68
2022/10/27 09:18:32;;;;;;;5.53;1.77;;;;;;;16.47;79.84;101813.72;5295483;28;20111;-68
2022/10/27 09:21:13;;;;;;;5.43;1.63;;;;;;;16.56;78.61;101806.25;5303132;28;20078;-69
2022/10/27 09:23:53;;;;;;;3.72;1.58;;;;;;;16.58;79.19;101815.19;5305674;28;20432;-68
2022/10/27 09:26:29;;;;;;;5.65;1.98;;;;;;;16.67;78.50;101806.91;5305608;28;20356;-68
2022/10/27 09:29:07;;;;;;;5.88;1.60;;;;;;;16.70;78.29;101806.31;5303070;28;20452;-68
2022/10/27 09:31:48;;;;;;;5.60;2.60;;;;;;;16.72;78.54;101798.44;5305717;28;20453;-67
2022/10/27 09:34:31;;;;;;;6.82;2.17;;;;;;;16.80;77.79;101792.13;5306314;28;20073;-67
2022/10/27 09:37:13;;;;;;;6.28;1.63;;;;;;;16.82;77.56;101798.28;5306266;28;20533;-67
2022/10/27 09:39:50;;;;;;;4.57;1.90;;;;;;;16.90;78.04;101793.91;5306405;28;20031;-68
2022/10/27 09:42:25;;;;;;;5.30;1.60;;;;;;;16.95;77.20;101785.41;5304265;28;20016;-68
2022/10/27 09:44:58;;;;;;;;;;;;;;;16.95;77.71;101785.41;5304049;28;20040;-67
2022/10/27 09:47:36;;;;;;;6.45;2.08;;;;;;;16.98;77.31;101772.75;5304294;28;19969;-68
2022/10/27 09:50:27;;;;;;;3.80;1.85;;;;;;;17.05;78.04;101787.16;5302588;28;20028;-68
2022/10/27 09:52:58;;;;;;;4.43;1.90;;;;;;;17.11;77.76;101780.31;5298563;28;20036;-68
2022/10/27 09:55:49;;;;;;;5.30;1.50;;;;;;;17.20;77.26;101783.22;5304265;28;20344;-67
2022/10/27 09:58:20;;;;;;;4.25;1.65;;;;;;;17.25;76.90;101783.94;5302722;28;20489;-67
2022/10/27 10:00:59;;;;;;;2.63;1.35;;;;;;;17.37;76.16;101791.84;5305456;28;20060;-68
2022/10/27 10:03:31;;;;;;;6.53;1.55;;;;;;;17.43;76.28;101792.56;5306056;28;20436;-69
2022/10/27 10:06:06;;;;;;;4.45;1.50;;;;;;;17.59;74.88;101786.31;5304887;28;20031;-69
2022/10/27 10:08:37;;;;;;;5.80;1.70;;;;;;;17.55;75.41;101785.25;5297615;28;20434;-68
2022/10/27 10:11:21;;;;;;;5.05;1.58;;;;;;;17.70;75.10;101778.47;5286916;28;20032;-66
2022/10/27 10:13:58;;;;;;;4.60;1.65;;;;;;;17.79;74.92;101765.41;5305729;28;20032;-69
2022/10/27 10:16:29;;;;;;;6.43;1.50;;;;;;;17.85;74.91;101754.06;5306054;28;20024;-67
2022/10/27 10:19:02;;;;;;;4.95;1.27;;;;;;;17.86;74.14;101762.16;5304984;28;20031;-66
2022/10/27 10:21:53;;;;;;;2.90;1.55;;;;;;;17.92;73.94;101769.31;5305567;28;20489;-67
2022/10/27 10:24:32;;;;;;;3.42;1.50;;;;;;;17.97;74.03;101766.38;5304342;28;20024;-68
2022/10/27 10:27:05;;;;;;;3.20;1.65;;;;;;;17.98;73.73;101761.59;5304313;28;20137;-68
2022/10/27 10:29:46;;;;;;;4.55;1.50;;;;;;;18.00;74.33;101762.13;5305334;28;20032;-67
2022/10/27 10:32:30;;;;;;;3.53;1.85;;;;;;;18.00;74.08;101765.75;5305019;28;20024;-68
2022/10/27 10:35:24;;;;;;;4.20;1.42;;;;;;;18.07;73.78;101764.47;5305161;28;20024;-68
2022/10/27 10:37:56;;;;;;;5.43;1.50;;;;;;;18.08;74.05;101764.16;5305051;28;20035;-68
2022/10/27 10:40:28;;;;;;;7.95;1.55;;;;;;;18.11;74.29;101757.06;5303757;28;20039;-72
2022/10/27 10:43:13;;;;;;;4.85;1.50;;;;;;;18.15;73.67;101744.91;5305040;28;20020;-69
2022/10/27 10:45:51;;;;;;;2.92;1.95;;;;;;;18.15;73.90;101738.44;5305258;28;20024;-68
2022/10/27 10:48:28;;;;;;;9.85;1.67;;;;;;;18.24;74.01;101737.34;5304426;28;20534;-68
2022/10/27 10:51:03;;;;;;;3.63;1.85;;;;;;;18.32;74.14;101734.91;5305055;28;20417;-68
2022/10/27 10:54:05;;;;;;;8.25;1.92;;;;;;;18.33;73.79;101736.56;5282948;28;20071;-68
2022/10/27 10:56:37;;;;;;;2.33;1.45;;;;;;;18.33;73.86;101739.38;5286612;28;20067;-68
2022/10/27 10:59:08;;;;;;;6.10;1.75;;;;;;;18.38;73.83;101733.63;5302327;28;20055;-67
2022/10/27 11:01:53;;;;;;;8.73;1.60;;;;;;;18.40;73.63;101734.97;5298015;28;20049;-67
2022/10/27 11:04:30;;;;;;;5.15;1.95;;;;;;;18.38;73.41;101728.84;5293369;28;20047;-67
2022/10/27 11:07:14;;;;;;;3.83;1.88;;;;;;;18.43;73.92;101733.47;5294810;28;20025;-67
2022/10/27 11:10:03;;;;;;;6.45;1.60;;;;;;;18.43;73.90;101744.72;5298252;28;20036;-67
2022/10/27 11:12:42;;;;;;;2.70;1.73;;;;;;;18.52;73.60;101742.81;5304237;28;20408;-67
2022/10/27 11:15:14;;;;;;;2.95;1.67;;;;;;;18.50;74.37;101745.09;5303726;28;20370;-67
2022/10/27 11:17:49;;;;;;;2.15;1.40;;;;;;;18.47;74.55;101731.69;5304475;28;20028;-66
2022/10/27 11:20:31;;;;;;;3.83;1.50;;;;;;;18.51;73.82;101729.91;5304212;28;20050;-69
2022/10/27 11:23:28;;;;;;;5.25;1.90;;;;;;;18.52;74.53;101731.56;5302951;28;20074;-68
2022/10/27 11:26:02;;;;;;;7.55;2.00;;;;;;;18.55;74.58;101730.91;5294476;28;20090;-68
2022/10/27 11:28:40;;;;;;;4.20;1.80;;;;;;;18.51;74.98;101735.53;5303437;28;20066;-68
2022/10/27 11:31:31;;;;;;;6.68;2.38;;;;;;;18.55;75.95;101732.91;5303688;28;20032;-67
2022/10/27 11:34:29;;;;;;;4.53;2.30;;;;;;;18.61;75.80;101728.78;5303970;28;20036;-67
2022/10/27 11:37:10;;;;;;;5.45;1.65;;;;;;;18.63;75.52;101727.31;5303278;28;20107;-68
2022/10/27 11:39:51;;;;;;;5.53;1.58;;;;;;;18.67;75.68;101728.34;5303336;28;20040;-67
2022/10/27 11:42:44;;;;;;;5.90;2.20;;;;;;;18.69;75.62;101713.97;5303523;28;20020;-67
2022/10/27 11:45:24;;;;;;;5.18;1.63;;;;;;;18.69;75.92;101711.16;5304079;28;20054;-68
2022/10/27 11:48:03;;;;;;;3.63;1.85;;;;;;;18.73;75.72;101712.16;5302705;28;20062;-68
2022/10/27 11:50:48;;;;;;;5.40;1.92;;;;;;;18.63;76.04;101704.00;5302055;28;20111;-68
2022/10/27 11:53:20;;;;;;;;;;;;;;;18.62;76.15;101708.81;5304544;28;20069;-67
2022/10/27 11:56:26;;;;;;;31.40;23.17;;;;;;;18.60;76.63;101704.66;5303873;28;20014;-69
2022/10/27 11:59:14;;;;;;;15.40;12.75;;;;;;;18.63;76.38;101710.47;5288081;28;20036;-67
2022/10/27 12:01:55;;;;;;;15.68;8.02;;;;;;;18.61;76.56;101700.69;5289378;28;20032;-66
2022/10/27 12:04:34;;;;;;;8.55;3.00;;;;;;;18.64;76.82;101695.28;5291843;28;20028;-67
2022/10/27 12:07:43;;;;;;;5.00;2.60;;;;;;;18.60;77.60;101694.25;5303256;28;20054;-67
2022/10/27 12:10:29;;;;;;;4.88;2.17;;;;;;;18.62;77.41;101689.16;5294906;28;20067;-68
2022/10/27 12:13:09;;;;;;;7.60;2.25;;;;;;;18.66;78.04;101689.31;5301443;28;20024;-69
2022/10/27 12:15:45;;;;;;;5.60;1.90;;;;;;;18.73;77.89;101686.03;5282901;28;20099;-69
2022/10/27 12:18:35;;;;;;;5.72;2.30;;;;;;;18.74;77.93;101680.13;5301926;28;20032;-69
2022/10/27 12:21:31;;;;;;;5.47;3.05;;;;;;;18.82;77.77;101678.53;5303101;28;20174;-69
2022/10/27 12:24:12;;;;;;;;;;;;;;;18.84;78.01;101677.03;5293798;28;20115;-69
2022/10/27 12:27:00;;;;;;;5.45;2.15;;;;;;;18.91;77.91;101676.56;5302783;28;19915;-68
2022/10/27 12:29:39;;;;;;;7.78;2.67;;;;;;;18.99;77.67;101666.47;5282765;28;20025;-68
2022/10/27 12:32:24;;;;;;;4.38;2.22;;;;;;;18.98;78.11;101660.03;5289825;28;20025;-68
2022/10/27 12:35:03;;;;;;;4.60;2.30;;;;;;;18.99;78.55;101649.63;5302326;28;20107;-68
2022/10/27 12:37:42;;;;;;;6.90;2.58;;;;;;;18.98;78.33;101653.59;5303339;28;20023;-70
2022/10/27 12:40:23;;;;;;;7.95;2.15;;;;;;;19.02;78.18;101643.34;5294089;28;20060;-68
2022/10/27 12:43:33;;;;;;;5.05;2.15;;;;;;;19.05;78.36;101635.09;5282726;28;20446;-69
2022/10/27 12:46:24;;;;;;;4.15;2.47;;;;;;;19.00;78.46;101626.81;5237782;28;20033;-68
2022/10/27 12:49:18;;;;;;;5.45;2.80;;;;;;;19.05;78.56;101626.66;5304916;28;20043;-65
2022/10/27 12:52:03;;;;;;;7.75;2.20;;;;;;;19.02;78.31;101615.22;5307164;28;20057;-66
2022/10/27 12:54:47;;;;;;;6.53;2.95;;;;;;;19.05;78.47;101615.41;5306274;28;20474;-65
2022/10/27 12:57:37;;;;;;;4.90;2.85;;;;;;;19.11;79.06;101632.94;5307661;28;20024;-66
2022/10/27 13:00:12;;;;;;;7.38;2.60;;;;;;;19.13;78.93;101624.19;5291184;28;20047;-66
2022/10/27 13:02:50;;;;;;;5.95;3.00;;;;;;;19.17;78.62;101627.97;5295426;28;20047;-66
2022/10/27 13:06:03;;;;;;;5.35;2.80;;;;;;;19.19;78.59;101622.88;5307263;28;20040;-66
2022/10/27 13:08:55;;;;;;;5.05;2.72;;;;;;;19.20;78.63;101622.53;5293459;28;20523;-64
2022/10/27 13:12:00;;;;;;;5.57;3.20;;;;;;;19.20;79.08;101616.06;5294627;28;20027;-65
2022/10/27 13:15:03;;;;;;;4.78;2.42;;;;;;;19.24;78.92;101626.34;5284951;28;20028;-65
2022/10/27 13:18:01;;;;;;;16.35;13.40;;;;;;;19.21;79.66;101612.13;5296573;28;20028;-66
2022/10/27 13:20:56;;;;;;;4.97;2.70;;;;;;;19.23;79.65;101626.69;5304296;28;20089;-65
2022/10/27 13:24:00;;;;;;;10.90;2.70;;;;;;;19.25;79.56;101618.72;5303554;28;20028;-66
2022/10/27 13:26:53;;;;;;;11.57;3.70;;;;;;;19.31;78.90;101609.81;5267655;28;20518;-67
2022/10/27 13:29:34;;;;;;;8.35;3.00;;;;;;;19.32;79.16;101607.81;5306192;28;20020;-67
2022/10/27 13:32:25;;;;;;;7.82;3.50;;;;;;;19.33;79.05;101609.47;5306102;28;20338;-67
2022/10/27 13:34:59;;;;;;;7.10;2.90;;;;;;;19.37;79.65;101599.22;5289653;28;20482;-67
2022/10/27 13:37:57;;;;;;;5.85;2.70;;;;;;;19.30;80.34;101596.06;5284987;28;20052;-67
2022/10/27 13:40:36;;;;;;;7.28;4.18;;;;;;;19.31;79.73;101586.47;5285402;28;20028;-67
2022/10/27 13:43:22;;;;;;;7.85;2.95;;;;;;;19.31;80.12;101583.66;5302683;28;20490;-67
2022/10/27 13:45:54;;;;;;;12.07;2.88;;;;;;;19.36;79.67;101577.88;5304810;28;20028;-68
2022/10/27 13:48:26;;;;;;;6.28;2.60;;;;;;;19.34;79.96;101574.56;5288758;28;20032;-67
2022/10/27 13:50:57;;;;;;;6.88;3.13;;;;;;;19.36;80.13;101569.44;5295066;28;20036;-67
2022/10/27 13:53:28;;;;;;;9.90;2.80;;;;;;;19.37;80.58;101573.91;5284760;28;20033;-68
2022/10/27 13:56:11;;;;;;;9.07;3.22;;;;;;;19.40;80.43;101564.78;5286597;28;20036;-68
2022/10/27 13:59:13;;;;;;;9.10;3.10;;;;;;;19.41;80.64;101566.47;5305072;28;20031;-67
2022/10/27 14:01:49;;;;;;;9.18;2.72;;;;;;;19.42;80.48;101568.09;5302208;28;20546;-67
2022/10/27 14:04:39;;;;;;;5.90;2.53;;;;;;;19.49;80.52;101568.44;5296305;28;20383;-68
2022/10/27 14:07:13;;;;;;;5.03;2.30;;;;;;;19.49;80.90;101579.69;5284541;28;20024;-66
2022/10/27 14:09:48;;;;;;;6.22;2.40;;;;;;;19.46;81.05;101574.72;5284583;28;20024;-66
2022/10/27 14:12:33;;;;;;;5.22;2.30;;;;;;;19.49;80.21;101567.59;5294892;28;20020;-67
2022/10/27 14:15:21;;;;;;;7.93;2.72;;;;;;;19.52;80.41;101583.81;5289547;28;20028;-67
2022/10/27 14:17:55;;;;;;;6.40;3.40;;;;;;;19.54;80.85;101585.13;5293740;28;20040;-67
2022/10/27 14:20:44;;;;;;;4.45;2.53;;;;;;;19.50;81.23;101583.31;5284450;28;20024;-68
2022/10/27 14:23:16;;;;;;;7.40;2.88;;;;;;;19.53;81.53;101580.69;5284223;28;20039;-67
2022/10/27 14:25:48;;;;;;;7.43;2.50;;;;;;;19.53;81.04;101577.88;5283153;28;20053;-68
2022/10/27 14:28:22;;;;;;;6.80;2.33;;;;;;;19.57;81.49;101582.81;5288344;28;20052;-68
2022/10/27 14:31:15;;;;;;;5.32;3.58;;;;;;;19.57;81.23;101582.81;5298908;28;20035;-68
2022/10/27 14:33:46;;;;;;;8.23;2.55;;;;;;;19.53;81.76;101585.47;5299525;28;20056;-68
2022/10/27 14:36:21;;;;;;;8.07;2.60;;;;;;;19.54;82.21;101584.31;5304670;28;20485;-68
2022/10/27 14:38:58;;;;;;;8.05;2.92;;;;;;;19.51;82.59;101588.63;5304177;28;20394;-69
2022/10/27 14:41:31;;;;;;;8.63;3.03;;;;;;;19.54;82.41;101598.38;5304124;28;20094;-69
2022/10/27 14:44:06;;;;;;;8.85;2.78;;;;;;;19.54;82.62;101596.38;5303738;28;20461;-67
2022/10/27 14:46:42;;;;;;;9.13;2.80;;;;;;;19.57;83.19;101597.72;5303985;28;20023;-69
2022/10/27 14:49:29;;;;;;;9.98;3.03;;;;;;;19.54;83.05;101602.00;5304354;28;20051;-67
2022/10/27 14:52:05;;;;;;;6.47;3.13;;;;;;;19.55;83.24;101591.59;5304965;28;20032;-66
2022/10/27 14:54:37;;;;;;;7.70;2.45;;;;;;;19.57;83.33;101608.97;5304090;28;20019;-67
2022/10/27 14:57:30;;;;;;;7.40;3.80;;;;;;;19.56;83.54;101607.31;5304587;28;20032;-67
2022/10/27 15:00:23;;;;;;;4.07;2.75;;;;;;;19.57;83.22;101608.97;5301219;28;20032;-67
2022/10/27 15:02:57;;;;;;;8.68;4.38;;;;;;;19.55;83.44;101605.66;5304738;28;20173;-68
2022/10/27 15:05:32;;;;;;;5.72;3.40;;;;;;;19.57;83.12;101606.16;5304652;28;20032;-68
2022/10/27 15:08:11;;;;;;;7.53;3.95;;;;;;;19.60;83.38;101613.09;5303351;28;21174;-68
2022/10/27 15:10:46;;;;;;;9.32;5.40;;;;;;;19.58;82.97;101623.84;5304001;28;20020;-67
2022/10/27 15:13:23;;;;;;;6.97;3.50;;;;;;;19.58;82.96;101618.22;5304619;28;20100;-67
2022/10/27 15:16:05;;;;;;;13.65;4.15;;;;;;;19.53;83.40;101617.25;5303571;28;20020;-68
2022/10/27 15:18:43;;;;;;;7.50;3.40;;;;;;;19.50;83.96;101614.25;5304057;28;20371;-67
2022/10/27 15:21:21;;;;;;;10.20;3.70;;;;;;;19.50;83.53;101620.72;5303576;28;20028;-67
2022/10/27 15:24:15;;;;;;;8.23;3.53;;;;;;;19.51;83.20;101608.31;5304167;28;20020;-67
2022/10/27 15:26:47;;;;;;;8.85;3.72;;;;;;;19.52;83.97;101615.59;5303736;28;20036;-67
2022/10/27 15:29:20;;;;;;;5.07;3.65;;;;;;;19.49;83.89;101604.19;5303350;28;20378;-67
2022/10/27 15:31:58;;;;;;;12.55;4.68;;;;;;;19.52;84.09;101603.50;5304106;28;20058;-67
2022/10/27 15:34:37;;;;;;;8.75;4.05;;;;;;;19.49;83.68;101595.75;5303915;28;20024;-66
2022/10/27 15:37:13;;;;;;;11.68;3.72;;;;;;;19.47;83.71;101587.63;5304128;28;20024;-67
2022/10/27 15:39:44;;;;;;;7.00;3.10;;;;;;;19.49;83.67;101601.38;5303697;28;20039;-66
2022/10/27 15:42:18;;;;;;;7.00;4.03;;;;;;;19.49;82.94;101607.00;5302884;28;20024;-66
2022/10/27 15:44:49;;;;;;;5.82;3.30;;;;;;;19.47;82.97;101596.06;5302581;28;20348;-66
2022/10/27 15:47:48;;;;;;;6.45;3.53;;;;;;;19.50;82.87;101619.88;5294031;28;20027;-67
2022/10/27 15:50:26;;;;;;;7.55;3.65;;;;;;;19.49;82.98;101616.25;5285750;28;20039;-68
2022/10/27 15:53:19;;;;;;;9.35;3.60;;;;;;;19.50;82.62;101612.28;5302763;28;20111;-68
2022/10/27 15:56:02;;;;;;;10.80;3.60;;;;;;;19.46;83.40;101611.28;5295012;28;20136;-66
2022/10/27 15:58:38;;;;;;;8.27;4.03;;;;;;;19.46;83.22;101628.16;5296485;28;20031;-67
2022/10/27 16:01:09;;;;;;;;;;;;;;;19.45;83.29;101631.31;5303656;28;20075;-70
2022/10/27 16:03:54;;;;;;;8.20;3.27;;;;;;;19.49;82.95;101621.06;5302867;28;20334;-71
2022/10/27 16:06:31;;;;;;;10.38;3.40;;;;;;;19.40;83.39;101621.03;5384770;22;20266;-77
2022/10/27 16:09:04;;;;;;;7.60;3.72;;;;;;;19.45;82.85;101626.50;5282197;28;20395;-81
2022/10/27 16:11:40;;;;;;;8.95;4.15;;;;;;;19.39;82.98;101629.81;5282376;28;20024;-75
2022/10/27 16:14:14;;;;;;;8.23;3.45;;;;;;;19.37;83.35;101621.72;5282487;28;20029;-73
2022/10/27 16:16:45;;;;;;;8.63;3.78;;;;;;;19.37;83.63;101621.72;5280179;28;20031;-73
2022/10/27 16:19:16;;;;;;;6.65;3.95;;;;;;;19.32;83.68;101619.88;5281685;28;20033;-71
2022/10/27 16:21:48;;;;;;;11.40;4.40;;;;;;;19.30;83.40;101615.75;5282962;28;20058;-78
2022/10/27 16:24:21;;;;;;;7.90;3.85;;;;;;;19.28;83.68;101620.91;5285064;28;20020;-79
2022/10/27 16:26:54;;;;;;;11.02;4.03;;;;;;;19.22;83.93;101631.44;5288033;28;20035;-81
2022/10/27 16:29:30;;;;;;;14.52;4.90;;;;;;;19.19;83.95;101625.69;5286999;28;20044;-80
2022/10/27 16:32:02;;;;;;;11.93;3.83;;;;;;;19.13;83.99;101627.00;5289114;28;20545;-79
2022/10/27 16:34:33;;;;;;;8.18;3.88;;;;;;;19.10;84.46;101629.31;5281362;28;20016;-79
2022/10/27 16:37:14;;;;;;;7.47;3.78;;;;;;;19.05;84.54;101637.91;5287390;28;20115;-80
2022/10/27 16:39:46;;;;;;;8.10;3.83;;;;;;;19.03;84.67;101631.78;5286045;28;20030;-80
2022/10/27 16:42:17;;;;;;;7.63;4.32;;;;;;;19.00;84.83;101631.63;5289666;28;20390;-80
2022/10/27 16:44:49;;;;;;;7.90;3.95;;;;;;;18.98;84.42;101642.34;5289651;28;20417;-80
2022/10/27 16:47:20;;;;;;;7.60;3.72;;;;;;;18.92;85.04;101638.03;5286685;28;20074;-80
2022/10/27 16:49:54;;;;;;;8.70;4.90;;;;;;;18.90;85.34;101644.00;5279786;28;20025;-79
2022/10/27 16:52:25;;;;;;;6.40;3.97;;;;;;;18.85;84.61;101652.56;5285670;28;20474;-80
2022/10/27 16:54:56;;;;;;;9.70;3.90;;;;;;;18.85;84.90;101649.75;5286223;28;20109;-80
2022/10/27 16:57:29;;;;;;;9.90;5.20;;;;;;;18.82;84.66;101656.03;5286203;28;20101;-79
2022/10/27 17:00:06;;;;;;;8.30;3.90;;;;;;;18.77;85.02;101661.81;5284796;28;20032;-81
2022/10/27 17:02:38;;;;;;;9.70;4.40;;;;;;;18.71;85.05;101661.06;5286180;28;20028;-80
2022/10/27 17:05:09;;;;;;;8.65;4.22;;;;;;;18.69;85.12;101653.00;5285479;28;20021;-80
2022/10/27 17:07:41;;;;;;;10.00;4.68;;;;;;;18.67;85.51;101654.47;5284968;28;20067;-80
2022/10/27 17:10:13;;;;;;;10.30;4.00;;;;;;;18.63;85.29;101656.25;5267807;28;20119;-79
2022/10/27 17:12:44;;;;;;;6.10;4.10;;;;;;;18.62;85.34;101646.19;5285514;28;20107;-77
2022/10/27 17:15:15;;;;;;;6.47;4.05;;;;;;;18.59;85.33;101639.25;5284619;28;20058;-78
2022/10/27 17:17:47;;;;;;;8.55;4.40;;;;;;;18.54;85.73;101635.75;5285969;28;20458;-76
2022/10/27 17:20:18;;;;;;;7.25;4.70;;;;;;;18.51;85.84;101634.44;5275644;28;20021;-78
2022/10/27 17:22:49;;;;;;;10.52;5.00;;;;;;;18.47;85.62;101633.41;5272673;28;20020;-79
2022/10/27 17:25:20;;;;;;;12.02;5.18;;;;;;;18.46;85.67;101643.00;5284830;28;20027;-77
2022/10/27 17:27:52;;;;;;;12.18;4.35;;;;;;;18.45;85.96;101630.91;5284392;28;20154;-77
2022/10/27 17:30:23;;;;;;;10.40;6.22;;;;;;;18.41;85.82;101638.34;5284707;28;20028;-77
2022/10/27 17:32:54;;;;;;;13.95;6.20;;;;;;;18.40;86.15;101639.47;5285288;28;20028;-77
